createdAt,value
2023-01-19T00:05:06.217Z,-0.40
2023-01-19T00:15:12.841Z,-0.50
2023-01-19T00:25:16.374Z,-0.40
2023-01-19T00:35:21.180Z,-0.60
2023-01-19T00:45:25.787Z,-0.30
2023-01-19T00:55:32.443Z,-0.20
2023-01-19T01:05:35.891Z,-0.10
2023-01-19T01:15:40.707Z,0.00
2023-01-19T01:25:44.191Z,0.20
2023-01-19T01:35:49.805Z,-0.10
2023-01-19T01:45:55.006Z,0.20
2023-01-19T01:56:01.250Z,0.30
2023-01-19T02:06:08.131Z,0.30
2023-01-19T02:16:13.996Z,0.10
2023-01-19T02:26:22.872Z,0.30
2023-01-19T02:36:31.416Z,0.30
2023-01-19T02:46:37.449Z,0.20
2023-01-19T02:56:52.263Z,0.00
2023-01-19T03:07:04.617Z,0.00
2023-01-19T03:17:10.851Z,0.10
2023-01-19T03:27:20.965Z,0.00
2023-01-19T03:37:25.846Z,0.00
2023-01-19T03:47:30.819Z,0.10
2023-01-19T03:57:34.333Z,0.10
2023-01-19T04:07:39.169Z,0.10
2023-01-19T04:17:42.947Z,0.20
2023-01-19T04:27:47.763Z,-0.10
2023-01-19T04:37:51.209Z,0.30
2023-01-19T04:47:56.046Z,0.50
2023-01-19T04:57:59.539Z,0.60
2023-01-19T05:08:04.463Z,0.40
2023-01-19T05:18:08.045Z,0.20
2023-01-19T05:28:13.254Z,0.40
2023-01-19T05:38:20.825Z,0.50
2023-01-19T05:48:25.835Z,0.60
2023-01-19T05:58:29.532Z,0.70
2023-01-19T06:08:34.458Z,0.60
2023-01-19T06:18:38.071Z,0.60
2023-01-19T06:28:42.843Z,0.70
2023-01-19T06:38:46.435Z,0.90
2023-01-19T06:48:51.274Z,0.60
2023-01-19T06:58:55.314Z,0.70
2023-01-19T07:09:00.337Z,0.50
2023-01-19T07:19:03.803Z,0.80
2023-01-19T07:29:08.648Z,0.60
2023-01-19T07:39:12.066Z,0.60
2023-01-19T07:49:16.964Z,0.80
2023-01-19T07:59:20.446Z,0.90
2023-01-19T08:09:25.475Z,1.00
2023-01-19T08:19:29.216Z,1.10
2023-01-19T08:29:34.025Z,1.00
2023-01-19T08:39:37.423Z,1.00
2023-01-19T08:49:42.473Z,1.40
2023-01-19T08:59:47.458Z,1.20
2023-01-19T09:09:52.340Z,1.00
2023-01-19T09:19:55.825Z,1.40
2023-01-19T09:30:00.644Z,1.50
2023-01-19T09:40:04.331Z,1.40
2023-01-19T09:50:20.538Z,1.30
2023-01-19T10:00:25.425Z,1.50
2023-01-19T10:10:33.095Z,1.50
2023-01-19T10:20:41.616Z,1.60
2023-01-19T10:30:49.199Z,1.60
2023-01-19T10:40:59.739Z,2.00
2023-01-19T10:51:07.295Z,2.10
2023-01-19T11:01:20.210Z,1.70
2023-01-19T11:11:26.948Z,1.80
2023-01-19T11:21:33.341Z,2.10
2023-01-19T11:31:38.317Z,2.10
2023-01-19T11:41:42.933Z,2.90
2023-01-19T11:51:56.430Z,2.30
2023-01-19T12:02:03.696Z,2.10
2023-01-19T12:12:13.475Z,1.80
2023-01-19T12:22:19.208Z,1.40
2023-01-19T12:32:35.319Z,1.70
2023-01-19T12:42:45.439Z,1.50
2023-01-19T12:52:57.484Z,1.60
2023-01-19T13:03:02.222Z,1.30
2023-01-19T13:13:19.837Z,1.30
2023-01-19T13:23:26.624Z,1.40
2023-01-19T13:33:49.797Z,1.30
2023-01-19T13:44:01.379Z,1.30
2023-01-19T13:54:06.785Z,1.10
2023-01-19T14:04:30.835Z,0.90
2023-01-19T14:14:36.034Z,0.90
2023-01-19T14:24:39.427Z,0.70
2023-01-19T14:34:46.950Z,0.90
2023-01-19T14:44:53.454Z,0.70
2023-01-19T14:55:00.030Z,0.70
2023-01-19T15:05:03.518Z,0.70
2023-01-19T15:15:16.920Z,0.50
2023-01-19T15:25:26.158Z,0.50
2023-01-19T15:35:31.319Z,0.40
2023-01-19T15:45:37.818Z,0.50
2023-01-19T15:55:42.780Z,0.00
2023-01-19T16:05:47.741Z,0.40
2023-01-19T16:15:52.505Z,0.30
2023-01-19T16:26:01.164Z,0.30
2023-01-19T16:36:26.532Z,0.30
2023-01-19T16:46:33.986Z,0.10
2023-01-19T16:56:38.943Z,0.30
2023-01-19T17:06:42.453Z,0.30
2023-01-19T17:16:47.581Z,0.00
2023-01-19T17:26:51.087Z,0.20
2023-01-19T17:37:02.756Z,-0.10
2023-01-19T17:47:06.571Z,0.10
2023-01-19T17:57:11.669Z,-0.10
2023-01-19T18:07:15.091Z,0.20
2023-01-19T18:17:20.395Z,0.20
2023-01-19T18:27:23.932Z,0.20
2023-01-19T18:37:28.749Z,0.10
2023-01-19T18:47:34.687Z,0.10
2023-01-19T18:57:39.569Z,0.10
2023-01-19T19:07:43.496Z,0.10
2023-01-19T19:17:48.511Z,-0.20
2023-01-19T19:27:53.507Z,-0.10
2023-01-19T19:37:58.469Z,-0.20
2023-01-19T19:48:02.229Z,0.00
2023-01-19T19:58:07.323Z,-0.20
2023-01-19T20:08:13.188Z,-0.30
2023-01-19T20:18:18.227Z,-0.10
2023-01-19T20:28:21.682Z,0.00
2023-01-19T20:38:26.705Z,-0.10
2023-01-19T20:48:30.673Z,-0.40
2023-01-19T20:58:35.747Z,-0.40
2023-01-19T21:08:39.629Z,0.00
2023-01-19T21:18:45.606Z,-0.40
2023-01-19T21:28:50.062Z,-0.20
2023-01-19T21:39:00.176Z,-0.10
2023-01-19T21:49:08.500Z,-0.20
2023-01-19T21:59:17.285Z,-0.20
2023-01-19T22:09:21.528Z,-0.20
2023-01-19T22:19:26.661Z,-0.20
2023-01-19T22:29:30.307Z,-0.50
2023-01-19T22:39:35.555Z,-0.50
2023-01-19T22:49:38.981Z,-0.50
2023-01-19T22:59:44.004Z,-0.30
2023-01-19T23:09:47.461Z,-0.40
2023-01-19T23:19:52.274Z,-0.30
2023-01-19T23:29:55.667Z,-0.20
2023-01-19T23:40:00.542Z,-0.30
2023-01-19T23:50:05.248Z,-0.40
